Time;durP1;ratioP1;P1;durP2;ratioP2;P2;SDS_P1;SDS_P2;PMS_P1;PMS_P2;Temp;Humidity;BMP_temperature;BMP_pressure;BME280_temperature;BME280_humidity;BME280_pressure;Samples;Min_cycle;Max_cycle;Signal;HPM_P1;HPM_P2
2023/04/05 00:00:31;;;;;;;62.25;42.72;;;3.90;99.90;;;;;;4887708;29;20124;-76
2023/04/05 00:03:00;;;;;;;64.20;44.47;;;3.90;99.90;;;;;;4876041;29;20057;-78
2023/04/05 00:05:30;;;;;;;65.57;46.45;;;3.90;99.90;;;;;;4891119;29;20477;-77
2023/04/05 00:07:59;;;;;;;60.13;44.72;;;3.90;99.90;;;;;;4885922;29;20052;-76
2023/04/05 00:10:27;;;;;;;57.17;43.95;;;3.90;99.90;;;;;;4887411;29;20084;-77
2023/04/05 00:12:54;;;;;;;63.58;45.22;;;3.90;99.90;;;;;;4886363;29;20072;-78
2023/04/05 00:15:22;;;;;;;50.65;40.28;;;3.90;99.90;;;;;;4890644;29;20045;-77
2023/04/05 00:17:50;;;;;;;53.65;41.60;;;3.80;99.90;;;;;;4892952;29;20049;-77
2023/04/05 00:20:19;;;;;;;55.30;42.78;;;3.80;99.90;;;;;;4885556;29;20060;-76
2023/04/05 00:22:49;;;;;;;54.25;41.72;;;3.80;99.90;;;;;;4885889;29;20052;-77
2023/04/05 00:25:18;;;;;;;54.03;41.17;;;3.70;99.90;;;;;;4883604;29;20049;-79
2023/04/05 00:27:45;;;;;;;53.42;41.15;;;3.70;99.90;;;;;;4888053;29;20080;-76
2023/04/05 00:30:19;;;;;;;54.15;40.15;;;3.70;99.90;;;;;;4886779;29;20044;-76
2023/04/05 00:32:48;;;;;;;50.10;38.85;;;3.70;99.90;;;;;;4885875;29;20111;-76
2023/04/05 00:35:16;;;;;;;53.47;40.40;;;3.70;99.90;;;;;;4876609;29;20523;-76
2023/04/05 00:37:45;;;;;;;47.40;38.47;;;3.70;99.90;;;;;;4896961;29;20057;-78
2023/04/05 00:40:13;;;;;;;51.13;39.63;;;3.60;99.90;;;;;;4879426;29;20065;-77
2023/04/05 00:42:40;;;;;;;53.80;41.72;;;3.60;99.90;;;;;;4871051;29;20061;-78
2023/04/05 00:45:08;;;;;;;51.38;39.60;;;3.50;99.90;;;;;;4887558;29;20072;-77
2023/04/05 00:47:36;;;;;;;53.28;39.78;;;3.50;99.90;;;;;;4869272;29;20048;-78
2023/04/05 00:50:04;;;;;;;56.05;41.22;;;3.50;99.90;;;;;;4885994;29;20041;-77
2023/04/05 00:52:32;;;;;;;48.22;37.25;;;3.40;99.90;;;;;;4885189;29;20499;-76
2023/04/05 00:55:01;;;;;;;49.63;37.33;;;3.40;99.90;;;;;;4868715;29;20117;-77
2023/04/05 00:57:29;;;;;;;54.15;39.50;;;3.40;99.90;;;;;;4885843;29;20425;-74
2023/04/05 00:59:59;;;;;;;49.47;37.00;;;3.50;99.90;;;;;;4870145;29;20049;-75
2023/04/05 01:02:32;;;;;;;50.35;36.95;;;3.50;99.90;;;;;;4886995;29;20045;-76
2023/04/05 01:05:05;;;;;;;53.30;37.70;;;3.50;99.90;;;;;;4887218;29;20143;-77
2023/04/05 01:07:41;;;;;;;52.53;37.83;;;3.40;99.90;;;;;;4885524;29;20136;-77
2023/04/05 01:10:10;;;;;;;;;;;3.40;99.90;;;;;;4869379;29;20048;-75
2023/04/05 01:12:38;;;;;;;54.90;39.20;;;3.50;99.90;;;;;;4883934;29;19935;-76
2023/04/05 01:15:07;;;;;;;53.42;38.42;;;3.50;99.90;;;;;;4869223;29;20076;-76
2023/04/05 01:17:38;;;;;;;58.30;38.63;;;3.50;99.90;;;;;;4884819;29;20049;-77
2023/04/05 01:20:09;;;;;;;52.25;37.22;;;3.50;99.90;;;;;;4886477;29;20069;-79
2023/04/05 01:23:08;;;;;;;53.85;36.78;;;3.50;99.90;;;;;;4883867;29;20043;-77
2023/04/05 01:25:57;;;;;;;49.60;35.90;;;3.50;99.90;;;;;;4886315;29;20583;-75
2023/04/05 01:29:02;;;;;;;51.85;35.53;;;3.50;99.90;;;;;;4875268;29;20099;-75
2023/04/05 01:31:37;;;;;;;47.40;34.42;;;3.50;99.90;;;;;;4873593;29;20113;-75
2023/04/05 01:34:17;;;;;;;45.63;32.85;;;3.50;99.90;;;;;;4891479;29;20067;-76
2023/04/05 01:36:51;;;;;;;45.58;32.70;;;3.50;99.90;;;;;;4883551;29;20112;-78
2023/04/05 01:39:20;;;;;;;47.60;33.05;;;3.50;99.90;;;;;;4885772;29;20127;-76
2023/04/05 01:41:48;;;;;;;43.40;30.65;;;3.50;99.90;;;;;;4885793;29;20049;-77
2023/04/05 01:44:15;;;;;;;44.72;30.77;;;3.50;99.90;;;;;;4882745;29;20104;-77
2023/04/05 01:46:44;;;;;;;45.85;32.20;;;3.50;99.90;;;;;;4883294;29;20127;-78
2023/04/05 01:49:13;;;;;;;43.70;31.52;;;3.40;99.90;;;;;;4870709;29;20595;-76
2023/04/05 01:51:41;;;;;;;48.67;33.13;;;3.40;99.90;;;;;;4867037;29;20057;-75
2023/04/05 01:54:09;;;;;;;44.65;32.72;;;3.40;99.90;;;;;;4867664;29;20045;-76
2023/04/05 01:56:36;;;;;;;44.35;31.75;;;3.40;99.90;;;;;;4884732;29;20045;-76
2023/04/05 01:59:04;;;;;;;43.92;31.67;;;3.40;99.90;;;;;;4868049;29;20152;-75
2023/04/05 02:01:32;;;;;;;47.13;32.65;;;3.40;99.90;;;;;;4867084;29;20133;-76
2023/04/05 02:04:01;;;;;;;44.53;32.60;;;3.40;99.90;;;;;;4867797;29;20045;-76
2023/04/05 02:06:29;;;;;;;45.67;31.63;;;3.40;99.90;;;;;;4884533;29;20454;-77
2023/04/05 02:08:57;;;;;;;45.67;32.63;;;3.40;99.90;;;;;;4883852;29;20508;-75
2023/04/05 02:11:24;;;;;;;44.05;29.13;;;3.40;99.90;;;;;;4886228;29;20041;-76
2023/04/05 02:13:52;;;;;;;45.50;29.63;;;3.40;99.90;;;;;;4870247;29;20045;-76
2023/04/05 02:16:19;;;;;;;47.85;32.03;;;3.40;99.90;;;;;;4874197;29;20060;-76
2023/04/05 02:18:49;;;;;;;43.25;31.38;;;3.40;99.90;;;;;;4876203;29;20044;-76
2023/04/05 02:21:20;;;;;;;45.58;32.78;;;3.30;99.90;;;;;;4891643;29;20112;-77
2023/04/05 02:23:48;;;;;;;46.38;32.75;;;3.40;99.90;;;;;;4874853;29;20087;-76
2023/04/05 02:26:15;;;;;;;45.17;32.50;;;3.40;99.90;;;;;;4885015;29;20053;-77
2023/04/05 02:28:42;;;;;;;42.42;29.98;;;3.30;99.90;;;;;;4885582;29;20052;-78
2023/04/05 02:31:11;;;;;;;42.03;31.98;;;3.30;99.90;;;;;;4869234;29;20040;-77
2023/04/05 02:33:38;;;;;;;45.20;32.75;;;3.40;99.90;;;;;;4884824;29;20041;-76
2023/04/05 02:36:06;;;;;;;44.38;32.15;;;3.30;99.90;;;;;;4887436;29;20051;-77
2023/04/05 02:38:35;;;;;;;41.53;31.42;;;3.30;99.90;;;;;;4877024;29;20196;-76
2023/04/05 02:41:03;;;;;;;43.70;33.45;;;3.30;99.90;;;;;;4885752;29;20109;-77
2023/04/05 02:43:32;;;;;;;44.22;33.42;;;3.30;99.90;;;;;;4884241;29;20045;-76
2023/04/05 02:46:00;;;;;;;45.72;33.72;;;3.30;99.90;;;;;;4889443;29;20048;-77
2023/04/05 02:48:27;;;;;;;44.45;35.55;;;3.30;99.90;;;;;;4885394;29;20097;-75
2023/04/05 02:50:55;;;;;;;44.75;35.22;;;3.30;99.90;;;;;;4887858;29;20113;-77
2023/04/05 02:53:23;;;;;;;45.42;35.70;;;3.30;99.90;;;;;;4895286;29;20072;-77
2023/04/05 02:55:58;;;;;;;46.38;35.45;;;3.30;99.90;;;;;;4867253;29;20049;-78
2023/04/05 02:58:27;;;;;;;46.80;35.67;;;3.30;99.90;;;;;;4866574;29;20144;-78
2023/04/05 03:00:55;;;;;;;45.45;34.53;;;3.30;99.90;;;;;;4868367;29;20060;-78
2023/04/05 03:03:30;;;;;;;44.80;35.60;;;3.20;99.90;;;;;;4866920;29;20129;-78
2023/04/05 03:06:00;;;;;;;42.80;34.53;;;3.20;99.90;;;;;;4866272;29;20105;-76
2023/04/05 03:08:31;;;;;;;44.38;33.63;;;3.20;99.90;;;;;;4874081;29;20075;-76
2023/04/05 03:11:06;;;;;;;46.35;34.38;;;3.20;99.90;;;;;;4867976;29;20124;-76
2023/04/05 03:13:34;;;;;;;43.47;33.45;;;3.20;99.90;;;;;;4866081;29;20088;-76
2023/04/05 03:16:05;;;;;;;50.03;35.38;;;3.20;99.90;;;;;;4875409;29;20048;-78
2023/04/05 03:18:33;;;;;;;47.38;37.28;;;3.20;99.90;;;;;;4882155;29;20053;-75
2023/04/05 03:21:10;;;;;;;46.78;36.42;;;3.20;99.90;;;;;;4867645;29;20049;-76
2023/04/05 03:23:45;;;;;;;48.33;36.72;;;3.30;99.90;;;;;;4868118;29;20139;-77
2023/04/05 03:26:17;;;;;;;46.28;35.33;;;3.30;99.90;;;;;;4865608;29;20045;-75
2023/04/05 03:28:50;;;;;;;40.35;29.95;;;3.30;99.90;;;;;;4866334;29;20053;-77
2023/04/05 03:31:20;;;;;;;41.63;28.77;;;3.30;99.90;;;;;;4872221;29;20048;-77
2023/04/05 03:33:49;;;;;;;40.83;29.33;;;3.30;99.90;;;;;;4871712;29;20045;-76
2023/04/05 03:36:18;;;;;;;41.30;28.33;;;3.30;99.90;;;;;;4885706;29;20045;-75
2023/04/05 03:38:51;;;;;;;40.55;28.13;;;3.30;99.90;;;;;;4870026;29;20052;-78
2023/04/05 03:41:23;;;;;;;37.65;26.58;;;3.30;99.90;;;;;;4871135;29;20080;-75
2023/04/05 03:43:50;;;;;;;36.55;25.70;;;3.30;99.90;;;;;;4870357;29;20059;-77
2023/04/05 03:46:21;;;;;;;41.55;28.45;;;3.20;99.90;;;;;;4876872;29;20478;-78
2023/04/05 03:48:48;;;;;;;44.72;30.80;;;3.20;99.90;;;;;;4886467;29;20049;-77
2023/04/05 03:51:17;;;;;;;41.08;27.80;;;3.20;99.90;;;;;;4888267;29;20112;-78
2023/04/05 03:53:44;;;;;;;24.23;14.60;;;3.20;99.90;;;;;;4886463;29;20049;-76
2023/04/05 03:56:13;;;;;;;21.95;12.60;;;3.10;99.90;;;;;;4850661;29;20046;-76
2023/04/05 03:58:47;;;;;;;22.85;13.25;;;2.90;99.90;;;;;;4863534;29;20046;-77
2023/04/05 04:01:15;;;;;;;19.45;12.75;;;2.90;99.90;;;;;;4832365;29;20042;-76
2023/04/05 04:03:43;;;;;;;19.20;11.00;;;2.80;99.90;;;;;;4850220;29;20050;-76
2023/04/05 04:06:11;;;;;;;16.55;10.13;;;2.80;99.90;;;;;;4852407;29;20053;-76
2023/04/05 04:08:38;;;;;;;15.80;9.95;;;2.70;99.90;;;;;;4851809;29;20041;-77
2023/04/05 04:11:06;;;;;;;17.95;10.07;;;2.80;99.90;;;;;;4846885;29;20093;-78
2023/04/05 04:13:37;;;;;;;17.92;10.73;;;2.80;99.90;;;;;;4848878;29;20145;-76
2023/04/05 04:16:17;;;;;;;20.00;12.75;;;2.80;99.90;;;;;;4848517;29;20107;-75
2023/04/05 04:19:14;;;;;;;15.07;10.75;;;2.80;99.90;;;;;;4817024;29;20083;-75
2023/04/05 04:22:00;;;;;;;;;;;2.80;99.90;;;;;;4849915;29;20045;-75
2023/04/05 04:24:48;;;;;;;13.15;8.40;;;2.80;99.90;;;;;;4848852;29;19936;-77
2023/04/05 04:27:35;;;;;;;14.65;8.50;;;2.80;1.00;;;;;;4852558;29;20171;-76
2023/04/05 04:30:35;;;;;;;14.98;8.65;;;2.70;1.00;;;;;;4842837;29;20091;-76
2023/04/05 04:33:11;;;;;;;13.02;8.13;;;2.80;1.00;;;;;;4871257;29;20049;-76
2023/04/05 04:36:12;;;;;;;12.55;7.65;;;2.80;1.00;;;;;;4839873;29;20053;-75
2023/04/05 04:39:14;;;;;;;14.57;8.05;;;2.80;1.00;;;;;;4850937;29;20057;-74
2023/04/05 04:42:00;;;;;;;;;;;2.70;1.00;;;;;;4849925;29;20675;-76
2023/04/05 04:44:48;;;;;;;;;;;2.70;1.00;;;;;;4850908;29;20364;-75
2023/04/05 04:47:30;;;;;;;11.93;7.90;;;2.80;99.90;;;;;;4848408;29;20578;-76
2023/04/05 04:50:19;;;;;;;11.18;6.38;;;2.90;8.60;;;;;;4848518;29;20144;-75
2023/04/05 04:52:47;;;;;;;16.13;9.05;;;3.00;1.00;;;;;;4848096;29;20046;-76
2023/04/05 04:55:15;;;;;;;15.68;8.77;;;3.00;1.00;;;;;;4862479;29;20042;-75
2023/04/05 04:57:46;;;;;;;14.30;9.23;;;3.10;99.90;;;;;;4882082;29;20441;-77
2023/04/05 05:00:15;;;;;;;13.55;7.68;;;3.10;1.00;;;;;;4885858;29;20493;-76
2023/04/05 05:02:43;;;;;;;11.27;7.80;;;3.20;1.00;;;;;;4888126;29;20040;-76
2023/04/05 05:05:13;;;;;;;10.93;6.97;;;3.30;99.90;;;;;;4880158;29;20064;-75
2023/04/05 05:07:42;;;;;;;18.77;10.82;;;3.40;1.00;;;;;;4889788;29;20045;-77
2023/04/05 05:10:11;;;;;;;18.75;9.98;;;3.50;1.00;;;;;;4883697;29;20037;-75
2023/04/05 05:12:38;;;;;;;10.65;7.20;;;3.50;99.90;;;;;;4872647;29;20610;-76
2023/04/05 05:15:07;;;;;;;16.33;8.88;;;3.60;99.90;;;;;;4892203;29;20064;-76
2023/04/05 05:17:36;;;;;;;41.33;9.85;;;3.60;99.90;;;;;;4887369;29;20041;-74
2023/04/05 05:20:05;;;;;;;17.50;9.00;;;3.60;99.90;;;;;;4886581;29;20068;-76
2023/04/05 05:22:32;;;;;;;14.02;8.75;;;3.60;99.90;;;;;;4890516;29;20105;-76
2023/04/05 05:25:01;;;;;;;23.92;13.23;;;3.70;1.00;;;;;;4871808;29;20163;-76
2023/04/05 05:27:28;;;;;;;17.33;11.57;;;3.70;1.00;;;;;;4897029;29;20040;-77
2023/04/05 05:29:56;;;;;;;30.27;18.42;;;3.70;1.00;;;;;;4898507;29;20092;-76
2023/04/05 05:32:23;;;;;;;23.85;13.15;;;3.60;99.90;;;;;;4893223;29;20077;-77
2023/04/05 05:34:51;;;;;;;72.28;39.13;;;3.60;99.90;;;;;;4872819;29;20052;-76
2023/04/05 05:37:18;;;;;;;61.42;35.72;;;3.70;99.90;;;;;;4893672;29;20056;-75
2023/04/05 05:39:46;;;;;;;24.05;13.50;;;3.80;3.40;;;;;;4888288;29;20085;-76
2023/04/05 05:42:14;;;;;;;17.92;10.63;;;3.80;1.00;;;;;;4892552;29;20044;-77
2023/04/05 05:44:42;;;;;;;15.43;9.63;;;3.90;1.00;;;;;;4887321;29;20049;-75
2023/04/05 05:47:09;;;;;;;11.85;7.20;;;3.90;1.00;;;;;;4884780;29;20079;-75
2023/04/05 05:49:37;;;;;;;14.18;7.10;;;4.00;1.00;;;;;;4886480;29;20060;-76
2023/04/05 05:52:05;;;;;;;10.52;6.30;;;4.10;1.00;;;;;;4883542;29;20045;-74
2023/04/05 05:54:32;;;;;;;12.05;7.10;;;4.10;1.00;;;;;;4884791;29;20044;-75
2023/04/05 05:57:01;;;;;;;12.50;7.07;;;4.00;1.00;;;;;;4886430;29;20041;-74
2023/04/05 05:59:30;;;;;;;15.90;7.43;;;3.90;1.00;;;;;;4886273;29;20075;-77
2023/04/05 06:01:57;;;;;;;13.68;6.72;;;4.10;1.00;;;;;;4874946;29;20409;-77
2023/04/05 06:04:26;;;;;;;15.88;8.60;;;4.00;1.00;;;;;;4891737;29;20075;-76
2023/04/05 06:06:53;;;;;;;13.48;7.53;;;4.10;1.00;;;;;;4889402;29;20053;-76
2023/04/05 06:09:22;;;;;;;12.88;7.47;;;4.00;1.00;;;;;;4885803;29;20494;-75
2023/04/05 06:11:52;;;;;;;15.57;9.50;;;4.10;1.00;;;;;;4872568;29;20413;-76
2023/04/05 06:14:19;;;;;;;18.00;9.73;;;4.20;1.00;;;;;;4865843;29;20060;-76
2023/04/05 06:16:48;;;;;;;19.45;11.00;;;4.30;1.00;;;;;;4885367;29;20045;-77
2023/04/05 06:19:15;;;;;;;12.93;7.60;;;4.40;1.00;;;;;;4885962;29;20052;-75
2023/04/05 06:21:43;;;;;;;10.48;6.43;;;4.50;1.00;;;;;;4887054;29;20041;-78
2023/04/05 06:24:13;;;;;;;13.15;6.78;;;4.60;1.00;;;;;;4890353;29;20045;-76
2023/04/05 06:26:40;;;;;;;10.88;6.50;;;4.40;1.00;;;;;;4886693;29;20047;-76
2023/04/05 06:29:07;;;;;;;15.73;8.32;;;4.40;1.00;;;;;;4867073;29;20053;-75
2023/04/05 06:31:36;;;;;;;14.52;7.57;;;4.60;1.00;;;;;;4885578;29;20044;-76
2023/04/05 06:34:05;;;;;;;14.52;8.18;;;4.80;1.00;;;;;;4865767;29;20136;-77
2023/04/05 06:36:33;;;;;;;15.25;8.20;;;5.00;1.00;;;;;;4882753;29;20041;-75
2023/04/05 06:39:01;;;;;;;13.60;8.73;;;5.20;1.00;;;;;;4883321;29;20112;-76
2023/04/05 06:41:35;;;;;;;14.65;8.32;;;5.40;1.00;;;;;;4885370;29;20052;-74
2023/04/05 06:44:02;;;;;;;18.00;8.07;;;5.60;1.00;;;;;;4864946;29;20037;-77
2023/04/05 06:46:31;;;;;;;13.95;7.55;;;5.80;1.00;;;;;;4871427;29;20055;-75
2023/04/05 06:48:59;;;;;;;9.70;6.30;;;6.00;1.00;;;;;;4898830;29;20069;-73
2023/04/05 06:51:28;;;;;;;12.57;7.75;;;5.90;1.00;;;;;;4894748;29;20044;-74
2023/04/05 06:53:56;;;;;;;11.02;7.68;;;5.70;1.00;;;;;;4884108;29;21012;-74
2023/04/05 06:56:23;;;;;;;13.07;6.97;;;5.50;1.00;;;;;;4884129;29;20056;-74
2023/04/05 06:58:51;;;;;;;11.20;6.47;;;5.30;1.00;;;;;;4869009;29;20067;-75
2023/04/05 07:01:19;;;;;;;10.80;6.10;;;5.20;99.90;;;;;;4882177;29;20041;-75
2023/04/05 07:03:46;;;;;;;10.85;6.10;;;5.10;99.90;;;;;;4883207;29;20233;-75
2023/04/05 07:06:14;;;;;;;10.43;6.47;;;4.90;99.90;;;;;;4885480;29;20048;-74
2023/04/05 07:08:43;;;;;;;10.13;5.97;;;4.80;99.90;;;;;;4887673;29;20048;-74
2023/04/05 07:11:13;;;;;;;15.70;8.52;;;4.80;99.90;;;;;;4889005;29;20141;-74
2023/04/05 07:13:40;;;;;;;14.23;8.63;;;4.90;99.90;;;;;;4891734;29;20061;-75
2023/04/05 07:16:08;;;;;;;15.60;7.68;;;5.30;99.90;;;;;;4890333;29;20057;-74
2023/04/05 07:18:35;;;;;;;18.52;8.93;;;5.80;99.90;;;;;;4890406;29;20413;-75
2023/04/05 07:21:03;;;;;;;14.00;7.38;;;6.40;1.00;;;;;;4900053;29;20628;-75
2023/04/05 07:23:31;;;;;;;23.23;8.85;;;6.60;99.90;;;;;;4891278;29;20063;-75
2023/04/05 07:26:04;;;;;;;15.20;7.15;;;7.10;99.90;;;;;;4887026;29;20056;-74
2023/04/05 07:28:34;;;;;;;10.07;6.80;;;7.40;99.90;;;;;;4889246;29;20096;-74
2023/04/05 07:31:02;;;;;;;13.63;7.13;;;7.50;99.90;;;;;;4888661;29;20049;-73
2023/04/05 07:33:31;;;;;;;14.07;8.75;;;7.80;99.90;;;;;;4870824;29;20053;-74
2023/04/05 07:35:59;;;;;;;12.02;6.88;;;8.00;99.90;;;;;;4886556;29;20044;-75
2023/04/05 07:38:27;;;;;;;10.80;6.90;;;8.10;99.90;;;;;;4887925;29;20433;-73
2023/04/05 07:40:55;;;;;;;15.82;7.82;;;8.20;99.90;;;;;;4888093;29;20064;-74
2023/04/05 07:43:24;;;;;;;13.25;7.25;;;8.00;99.90;;;;;;4888654;29;20139;-73
2023/04/05 07:45:53;;;;;;;15.35;8.43;;;8.10;99.90;;;;;;4887102;29;20041;-74
2023/04/05 07:48:20;;;;;;;14.27;7.13;;;7.90;99.90;;;;;;4887104;29;20736;-74
2023/04/05 07:50:51;;;;;;;19.25;10.48;;;7.90;99.90;;;;;;4888537;29;20057;-73
2023/04/05 07:53:19;;;;;;;12.98;7.75;;;7.70;99.90;;;;;;4888166;29;20059;-74
2023/04/05 07:55:46;;;;;;;16.02;10.40;;;7.80;99.90;;;;;;4887910;29;20076;-74
2023/04/05 07:58:15;;;;;;;11.25;7.95;;;7.80;99.90;;;;;;4886716;29;20056;-73
2023/04/05 08:00:43;;;;;;;11.90;7.05;;;8.00;99.90;;;;;;4887540;29;20068;-74
2023/04/05 08:03:11;;;;;;;14.15;8.05;;;8.10;99.90;;;;;;4886376;29;20055;-75
2023/04/05 08:05:38;;;;;;;16.13;8.13;;;8.10;99.90;;;;;;4888719;29;20061;-75
2023/04/05 08:08:07;;;;;;;18.95;8.43;;;7.90;99.90;;;;;;4877530;29;20065;-74
2023/04/05 08:10:39;;;;;;;14.32;8.23;;;7.80;99.90;;;;;;4894650;29;20164;-74
2023/04/05 08:13:07;;;;;;;15.30;8.45;;;7.80;99.90;;;;;;4889845;29;20087;-73
2023/04/05 08:15:34;;;;;;;15.32;8.48;;;7.50;99.90;;;;;;4886936;29;20037;-74
2023/04/05 08:18:04;;;;;;;13.23;7.28;;;7.50;99.90;;;;;;4887226;29;20047;-74
2023/04/05 08:20:31;;;;;;;13.23;7.60;;;7.50;99.90;;;;;;4887098;29;20159;-73
2023/04/05 08:22:58;;;;;;;9.95;7.57;;;7.50;99.90;;;;;;4888902;29;20454;-74
2023/04/05 08:25:26;;;;;;;12.70;7.75;;;7.50;99.90;;;;;;4887745;29;20045;-74
2023/04/05 08:27:53;;;;;;;14.88;7.50;;;7.50;99.90;;;;;;4883639;29;20510;-74
2023/04/05 08:30:22;;;;;;;12.45;7.80;;;7.60;99.90;;;;;;4885508;29;20721;-74
2023/04/05 08:32:49;;;;;;;17.70;9.07;;;8.00;99.90;;;;;;4887263;29;20037;-74
2023/04/05 08:35:18;;;;;;;19.10;10.30;;;8.10;99.90;;;;;;4886783;29;20510;-75
2023/04/05 08:37:47;;;;;;;15.57;10.93;;;8.30;99.90;;;;;;4887168;29;20048;-76
2023/04/05 08:40:15;;;;;;;14.00;8.95;;;8.40;99.90;;;;;;4886652;29;20045;-74
2023/04/05 08:42:46;;;;;;;13.70;8.93;;;8.20;99.90;;;;;;4884746;29;20691;-74
2023/04/05 08:45:18;;;;;;;13.82;9.15;;;8.20;99.90;;;;;;4886396;29;20060;-74
2023/04/05 08:47:48;;;;;;;13.23;8.10;;;7.90;99.90;;;;;;4883732;29;20055;-75
2023/04/05 08:50:15;;;;;;;11.50;7.68;;;7.80;99.90;;;;;;4886783;29;20136;-74
2023/04/05 08:52:48;;;;;;;13.23;7.40;;;7.90;99.90;;;;;;4885566;29;20116;-73
2023/04/05 08:55:16;;;;;;;11.60;6.80;;;8.30;99.90;;;;;;4884772;29;20439;-76
2023/04/05 08:57:47;;;;;;;12.80;8.40;;;8.40;99.90;;;;;;4885161;29;20068;-74
2023/04/05 09:00:16;;;;;;;14.10;8.23;;;8.60;99.90;;;;;;4885610;29;20088;-74
2023/04/05 09:02:44;;;;;;;9.35;6.47;;;8.90;99.90;;;;;;4885868;29;20048;-75
2023/04/05 09:05:13;;;;;;;9.98;6.70;;;9.00;99.90;;;;;;4885748;29;20056;-75
2023/04/05 09:07:46;;;;;;;12.32;7.25;;;9.10;99.90;;;;;;4883247;29;20072;-75
2023/04/05 09:10:14;;;;;;;12.13;7.93;;;8.60;99.90;;;;;;4885654;29;20128;-75
2023/04/05 09:12:42;;;;;;;15.63;7.40;;;8.50;99.90;;;;;;4885768;29;20045;-76
2023/04/05 09:15:10;;;;;;;15.82;9.32;;;8.80;99.90;;;;;;4883679;29;20045;-74
2023/04/05 09:17:39;;;;;;;12.90;8.27;;;9.00;99.90;;;;;;4887290;29;20116;-74
2023/04/05 09:20:08;;;;;;;13.95;9.15;;;9.20;99.90;;;;;;4884624;29;20045;-76
2023/04/05 09:22:44;;;;;;;16.73;10.80;;;9.10;99.90;;;;;;4887130;29;20048;-75
2023/04/05 09:25:12;;;;;;;16.13;10.40;;;9.40;99.90;;;;;;4884486;29;20120;-74
2023/04/05 09:27:55;;;;;;;16.33;9.90;;;9.50;99.90;;;;;;4889175;29;20044;-75
2023/04/05 09:30:26;;;;;;;14.95;9.85;;;9.70;99.90;;;;;;4889048;29;20059;-77
2023/04/05 09:32:55;;;;;;;14.98;8.73;;;9.70;99.90;;;;;;4891091;29;20092;-78
2023/04/05 09:35:24;;;;;;;17.23;9.43;;;9.90;99.90;;;;;;4903855;29;20044;-81
2023/04/05 09:37:55;;;;;;;26.92;15.95;;;10.00;99.90;;;;;;4876804;29;20055;-79
2023/04/05 09:40:40;;;;;;;14.68;8.00;;;10.20;99.90;;;;;;4870150;29;20383;-77
2023/04/05 09:43:07;;;;;;;12.93;9.63;;;10.50;99.90;;;;;;4887863;29;20124;-77
2023/04/05 09:45:40;;;;;;;12.63;8.55;;;10.10;99.90;;;;;;4886307;29;20044;-78
2023/04/05 09:48:08;;;;;;;12.85;7.80;;;10.00;1.00;;;;;;4882753;29;20148;-78
2023/04/05 09:50:37;;;;;;;11.82;7.93;;;9.70;1.00;;;;;;4886162;29;20041;-79
2023/04/05 09:53:14;;;;;;;11.57;7.18;;;9.60;1.00;;;;;;4869686;29;20130;-80
2023/04/05 09:55:43;;;;;;;11.73;8.05;;;9.20;1.00;;;;;;4884508;29;20056;-74
2023/04/05 09:58:12;;;;;;;18.63;10.85;;;8.80;1.00;;;;;;4884958;29;20052;-74
2023/04/05 10:00:52;;;;;;;16.98;10.00;;;8.80;1.00;;;;;;4883735;29;20089;-76
2023/04/05 10:03:19;;;;;;;17.30;10.02;;;8.60;1.00;;;;;;4883428;29;20065;-75
2023/04/05 10:05:55;;;;;;;19.30;10.65;;;8.70;1.00;;;;;;4887237;29;20160;-74
2023/04/05 10:08:24;;;;;;;19.48;10.57;;;8.40;1.00;;;;;;4883947;29;20057;-75
2023/04/05 10:10:55;;;;;;;19.48;12.45;;;8.60;1.00;;;;;;4883843;29;20044;-75
2023/04/05 10:13:22;;;;;;;17.77;11.90;;;8.50;1.00;;;;;;4886000;29;20041;-77
2023/04/05 10:15:57;;;;;;;18.85;12.88;;;8.60;1.00;;;;;;4885348;29;20123;-75
2023/04/05 10:18:30;;;;;;;19.25;10.13;;;8.70;1.00;;;;;;4885218;29;20056;-77
2023/04/05 10:21:00;;;;;;;18.42;11.60;;;8.60;1.00;;;;;;4887543;29;20138;-76
2023/04/05 10:23:32;;;;;;;17.13;11.05;;;8.60;1.00;;;;;;4891260;29;20087;-77
2023/04/05 10:26:08;;;;;;;14.13;8.98;;;8.90;1.00;;;;;;4884842;29;20045;-75
2023/04/05 10:28:37;;;;;;;13.32;8.52;;;8.70;1.00;;;;;;4868084;29;20485;-77
2023/04/05 10:31:11;;;;;;;13.15;8.90;;;8.40;1.00;;;;;;4885244;29;20045;-75
2023/04/05 10:33:44;;;;;;;13.35;8.48;;;8.40;1.00;;;;;;4884109;29;20044;-76
2023/04/05 10:36:22;;;;;;;19.63;10.27;;;8.10;1.00;;;;;;4884069;29;21628;-74
2023/04/05 10:39:03;;;;;;;16.17;10.05;;;7.90;1.00;;;;;;4882012;29;20063;-74
2023/04/05 10:41:34;;;;;;;17.20;10.75;;;7.70;1.00;;;;;;4882985;29;20057;-74
2023/04/05 10:44:04;;;;;;;18.80;12.18;;;7.50;1.00;;;;;;4885399;29;20048;-74
2023/04/05 10:46:32;;;;;;;21.35;12.00;;;7.70;1.00;;;;;;4885780;29;20051;-74
2023/04/05 10:49:04;;;;;;;18.27;9.77;;;7.70;1.00;;;;;;4888940;29;20045;-75
2023/04/05 10:51:33;;;;;;;12.45;7.85;;;7.80;1.00;;;;;;4889718;29;20085;-74
2023/04/05 10:54:03;;;;;;;13.20;7.32;;;7.90;1.00;;;;;;4884970;29;20405;-74
2023/04/05 10:56:32;;;;;;;13.52;8.00;;;7.80;1.00;;;;;;4886503;29;20052;-76
2023/04/05 10:59:01;;;;;;;11.68;6.40;;;7.70;1.00;;;;;;4875674;29;20061;-75
2023/04/05 11:01:29;;;;;;;12.15;7.10;;;7.70;1.00;;;;;;4887016;29;20068;-76
2023/04/05 11:03:56;;;;;;;11.63;7.88;;;7.80;1.00;;;;;;4883917;29;20052;-75
2023/04/05 11:06:32;;;;;;;11.73;7.30;;;8.00;1.00;;;;;;4885849;29;20708;-75
2023/04/05 11:09:09;;;;;;;10.63;7.30;;;7.70;1.00;;;;;;4885347;29;20045;-75
2023/04/05 11:11:39;;;;;;;13.93;8.80;;;7.90;1.00;;;;;;4886196;29;20037;-76
2023/04/05 11:14:19;;;;;;;14.23;8.10;;;8.10;1.00;;;;;;4883948;29;20037;-76
2023/04/05 11:16:48;;;;;;;17.17;8.88;;;8.10;1.00;;;;;;4884018;29;20052;-78
2023/04/05 11:19:17;;;;;;;16.25;9.30;;;8.10;1.00;;;;;;4883212;29;20100;-76
2023/04/05 11:21:45;;;;;;;14.43;8.88;;;8.00;1.00;;;;;;4883305;29;20041;-75
2023/04/05 11:24:15;;;;;;;12.82;8.52;;;7.90;1.00;;;;;;4883339;29;20112;-76
2023/04/05 11:26:56;;;;;;;15.75;8.05;;;8.00;1.00;;;;;;4884736;29;20133;-76
2023/04/05 11:29:46;;;;;;;13.65;8.98;;;8.10;1.00;;;;;;4866794;29;20055;-76
2023/04/05 11:32:14;;;;;;;15.63;10.30;;;8.30;1.00;;;;;;4875082;29;20399;-78
2023/04/05 11:34:45;;;;;;;16.48;9.65;;;8.40;1.00;;;;;;4883984;29;20698;-75
2023/04/05 11:37:15;;;;;;;15.55;9.30;;;8.30;1.00;;;;;;4882707;29;20409;-76
2023/04/05 11:39:44;;;;;;;12.02;7.82;;;8.50;1.00;;;;;;4890093;29;20420;-76
2023/04/05 11:42:12;;;;;;;11.38;7.80;;;8.60;1.00;;;;;;4888788;29;20061;-77
2023/04/05 11:44:46;;;;;;;12.73;8.43;;;9.00;1.00;;;;;;4885712;29;20049;-77
2023/04/05 11:47:17;;;;;;;15.05;9.65;;;9.30;1.00;;;;;;4882861;29;20053;-76
2023/04/05 11:49:46;;;;;;;15.40;7.95;;;9.30;1.00;;;;;;4894791;29;20053;-76
2023/04/05 11:52:15;;;;;;;12.82;9.13;;;9.20;1.00;;;;;;4883106;29;20033;-75
2023/04/05 11:54:48;;;;;;;13.70;8.75;;;9.20;1.00;;;;;;4869558;29;20097;-74
2023/04/05 11:57:21;;;;;;;13.20;8.35;;;9.30;1.00;;;;;;4869790;29;20055;-74
2023/04/05 11:59:50;;;;;;;12.40;7.88;;;9.20;1.00;;;;;;4885180;29;20056;-75
2023/04/05 12:02:19;;;;;;;12.25;8.27;;;9.20;1.00;;;;;;4887574;29;20056;-75
2023/04/05 12:04:54;;;;;;;15.35;8.45;;;8.90;1.00;;;;;;4875018;29;20524;-74
2023/04/05 12:07:21;;;;;;;14.50;9.38;;;8.80;1.00;;;;;;4885780;29;20052;-73
2023/04/05 12:10:06;;;;;;;14.50;9.20;;;8.90;1.00;;;;;;4892303;29;20649;-76
2023/04/05 12:12:37;;;;;;;14.82;9.88;;;8.70;1.00;;;;;;4888312;29;20177;-75
2023/04/05 12:15:07;;;;;;;15.20;9.70;;;8.60;1.00;;;;;;4895530;29;20592;-74
2023/04/05 12:17:42;;;;;;;15.10;8.85;;;8.60;1.00;;;;;;4893857;29;20088;-74
2023/04/05 12:20:10;;;;;;;14.07;8.98;;;8.60;1.00;;;;;;4888628;29;20244;-77
2023/04/05 12:22:40;;;;;;;14.55;8.48;;;8.50;1.00;;;;;;4889694;29;20769;-76
2023/04/05 12:25:13;;;;;;;14.73;9.75;;;8.50;1.00;;;;;;4887313;29;20052;-76
2023/04/05 12:27:41;;;;;;;13.30;9.07;;;8.60;1.00;;;;;;4889882;29;20052;-75
2023/04/05 12:30:13;;;;;;;20.55;11.27;;;8.70;1.00;;;;;;4887083;29;20110;-75
2023/04/05 12:32:45;;;;;;;60.65;37.53;;;8.50;1.00;;;;;;4889426;29;20064;-77
2023/04/05 12:35:15;;;;;;;14.40;9.60;;;8.60;1.00;;;;;;4884797;29;20425;-76
2023/04/05 12:37:43;;;;;;;15.88;10.30;;;8.50;1.00;;;;;;4885539;29;20083;-75
2023/04/05 12:40:13;;;;;;;13.38;8.75;;;8.50;1.00;;;;;;4884646;29;20477;-75
2023/04/05 12:42:42;;;;;;;14.00;8.65;;;8.50;1.00;;;;;;4885001;29;20049;-76
2023/04/05 12:45:12;;;;;;;13.05;8.30;;;8.60;1.00;;;;;;4885016;29;20044;-75
2023/04/05 12:47:51;;;;;;;22.50;11.65;;;8.60;1.00;;;;;;4886275;29;20079;-75
2023/04/05 12:50:19;;;;;;;15.23;9.27;;;8.20;1.00;;;;;;4886655;29;20075;-75
2023/04/05 12:52:57;;;;;;;14.38;9.68;;;8.20;1.00;;;;;;4885526;29;20049;-76
2023/04/05 12:55:30;;;;;;;16.77;10.25;;;8.20;1.00;;;;;;4886336;29;20057;-74
2023/04/05 12:58:02;;;;;;;18.38;11.52;;;8.10;99.90;;;;;;4867361;29;20060;-76
2023/04/05 13:00:38;;;;;;;17.42;10.90;;;8.20;1.00;;;;;;4885940;29;20053;-77
2023/04/05 13:03:15;;;;;;;16.17;9.35;;;8.40;1.00;;;;;;4866284;29;20041;-74
2023/04/05 13:05:44;;;;;;;11.02;8.25;;;8.60;1.00;;;;;;4885967;29;20534;-74